sensor_id;sensor_type;location;lat;lon;timestamp;P1;durP1;ratioP1;P2;durP2;ratioP2
19189;SDS011;9727;50.200;19.038;2024-02-26T00:01:45;19.50;;;10.93;;
19189;SDS011;9727;50.200;19.038;2024-02-26T00:04:11;27.30;;;12.93;;
19189;SDS011;9727;50.200;19.038;2024-02-26T00:06:40;27.77;;;13.97;;
19189;SDS011;9727;50.200;19.038;2024-02-26T00:09:06;34.40;;;16.10;;
19189;SDS011;9727;50.200;19.038;2024-02-26T00:11:33;37.70;;;17.67;;
19189;SDS011;9727;50.200;19.038;2024-02-26T00:14:03;39.33;;;18.93;;
19189;SDS011;9727;50.200;19.038;2024-02-26T00:16:29;44.13;;;21.30;;
19189;SDS011;9727;50.200;19.038;2024-02-26T00:18:56;44.00;;;21.33;;
19189;SDS011;9727;50.200;19.038;2024-02-26T00:21:22;52.07;;;23.10;;
19189;SDS011;9727;50.200;19.038;2024-02-26T00:23:51;46.17;;;22.20;;
19189;SDS011;9727;50.200;19.038;2024-02-26T00:26:17;48.73;;;23.43;;
19189;SDS011;9727;50.200;19.038;2024-02-26T00:28:44;48.40;;;23.63;;
19189;SDS011;9727;50.200;19.038;2024-02-26T00:31:11;45.27;;;23.03;;
19189;SDS011;9727;50.200;19.038;2024-02-26T00:33:37;51.43;;;24.47;;
19189;SDS011;9727;50.200;19.038;2024-02-26T00:36:04;44.63;;;23.53;;
19189;SDS011;9727;50.200;19.038;2024-02-26T00:38:31;39.93;;;19.67;;
19189;SDS011;9727;50.200;19.038;2024-02-26T00:41:02;34.63;;;17.77;;
19189;SDS011;9727;50.200;19.038;2024-02-26T00:43:28;36.33;;;16.57;;
19189;SDS011;9727;50.200;19.038;2024-02-26T00:45:55;38.30;;;17.57;;
19189;SDS011;9727;50.200;19.038;2024-02-26T00:48:22;39.57;;;18.73;;
19189;SDS011;9727;50.200;19.038;2024-02-26T00:50:50;37.07;;;17.00;;
19189;SDS011;9727;50.200;19.038;2024-02-26T00:53:17;36.57;;;17.53;;
19189;SDS011;9727;50.200;19.038;2024-02-26T00:55:43;34.97;;;18.10;;
19189;SDS011;9727;50.200;19.038;2024-02-26T00:58:11;36.60;;;17.67;;
19189;SDS011;9727;50.200;19.038;2024-02-26T01:00:38;38.87;;;17.77;;
19189;SDS011;9727;50.200;19.038;2024-02-26T01:03:04;32.67;;;16.63;;
19189;SDS011;9727;50.200;19.038;2024-02-26T01:05:31;31.83;;;15.37;;
19189;SDS011;9727;50.200;19.038;2024-02-26T01:07:58;31.53;;;16.03;;
19189;SDS011;9727;50.200;19.038;2024-02-26T01:10:25;29.23;;;14.40;;
19189;SDS011;9727;50.200;19.038;2024-02-26T01:12:52;30.67;;;15.43;;
19189;SDS011;9727;50.200;19.038;2024-02-26T01:15:20;34.83;;;16.63;;
19189;SDS011;9727;50.200;19.038;2024-02-26T01:17:49;32.27;;;15.70;;
19189;SDS011;9727;50.200;19.038;2024-02-26T01:20:16;31.30;;;15.07;;
19189;SDS011;9727;50.200;19.038;2024-02-26T01:22:43;29.60;;;15.10;;
19189;SDS011;9727;50.200;19.038;2024-02-26T01:25:09;28.43;;;14.37;;
19189;SDS011;9727;50.200;19.038;2024-02-26T01:27:36;31.23;;;14.33;;
19189;SDS011;9727;50.200;19.038;2024-02-26T01:30:03;28.47;;;14.30;;
19189;SDS011;9727;50.200;19.038;2024-02-26T01:32:31;31.80;;;14.03;;
19189;SDS011;9727;50.200;19.038;2024-02-26T01:34:58;27.83;;;13.77;;
19189;SDS011;9727;50.200;19.038;2024-02-26T01:37:28;29.97;;;13.50;;
19189;SDS011;9727;50.200;19.038;2024-02-26T01:39:54;27.30;;;12.90;;
19189;SDS011;9727;50.200;19.038;2024-02-26T01:42:21;26.00;;;12.77;;
19189;SDS011;9727;50.200;19.038;2024-02-26T01:44:51;23.07;;;11.87;;
19189;SDS011;9727;50.200;19.038;2024-02-26T01:47:18;24.87;;;12.70;;
19189;SDS011;9727;50.200;19.038;2024-02-26T01:49:46;28.17;;;12.33;;
19189;SDS011;9727;50.200;19.038;2024-02-26T01:52:12;24.30;;;11.87;;
19189;SDS011;9727;50.200;19.038;2024-02-26T01:54:39;25.87;;;11.87;;
19189;SDS011;9727;50.200;19.038;2024-02-26T01:57:06;24.87;;;11.37;;
19189;SDS011;9727;50.200;19.038;2024-02-26T01:59:34;22.07;;;10.93;;
19189;SDS011;9727;50.200;19.038;2024-02-26T02:02:01;22.37;;;10.63;;
19189;SDS011;9727;50.200;19.038;2024-02-26T02:04:28;19.00;;;10.43;;
19189;SDS011;9727;50.200;19.038;2024-02-26T02:06:56;22.10;;;10.53;;
19189;SDS011;9727;50.200;19.038;2024-02-26T02:09:23;22.57;;;11.03;;
19189;SDS011;9727;50.200;19.038;2024-02-26T02:11:50;19.47;;;10.07;;
19189;SDS011;9727;50.200;19.038;2024-02-26T02:14:16;23.03;;;10.00;;
19189;SDS011;9727;50.200;19.038;2024-02-26T02:16:43;23.63;;;11.17;;
19189;SDS011;9727;50.200;19.038;2024-02-26T02:19:09;20.57;;;10.33;;
19189;SDS011;9727;50.200;19.038;2024-02-26T02:21:37;20.23;;;10.53;;
19189;SDS011;9727;50.200;19.038;2024-02-26T02:24:04;18.13;;;10.03;;
19189;SDS011;9727;50.200;19.038;2024-02-26T02:26:30;20.03;;;10.03;;
19189;SDS011;9727;50.200;19.038;2024-02-26T02:28:57;19.10;;;10.93;;
19189;SDS011;9727;50.200;19.038;2024-02-26T02:31:27;20.87;;;11.60;;
19189;SDS011;9727;50.200;19.038;2024-02-26T02:33:54;26.27;;;13.17;;
19189;SDS011;9727;50.200;19.038;2024-02-26T02:36:20;29.83;;;14.90;;
19189;SDS011;9727;50.200;19.038;2024-02-26T02:38:51;28.27;;;15.00;;
19189;SDS011;9727;50.200;19.038;2024-02-26T02:41:18;24.63;;;11.83;;
19189;SDS011;9727;50.200;19.038;2024-02-26T02:43:45;22.40;;;10.97;;
19189;SDS011;9727;50.200;19.038;2024-02-26T02:46:11;31.43;;;13.87;;
19189;SDS011;9727;50.200;19.038;2024-02-26T02:48:38;31.60;;;15.53;;
19189;SDS011;9727;50.200;19.038;2024-02-26T02:51:07;32.97;;;16.40;;
19189;SDS011;9727;50.200;19.038;2024-02-26T02:53:34;33.90;;;16.63;;
19189;SDS011;9727;50.200;19.038;2024-02-26T02:56:02;30.93;;;16.10;;
19189;SDS011;9727;50.200;19.038;2024-02-26T02:58:28;33.07;;;16.20;;
19189;SDS011;9727;50.200;19.038;2024-02-26T03:00:55;32.37;;;17.03;;
19189;SDS011;9727;50.200;19.038;2024-02-26T03:03:21;32.20;;;17.50;;
19189;SDS011;9727;50.200;19.038;2024-02-26T03:05:49;34.30;;;18.17;;
19189;SDS011;9727;50.200;19.038;2024-02-26T03:08:16;33.77;;;17.07;;
19189;SDS011;9727;50.200;19.038;2024-02-26T03:10:44;36.07;;;17.97;;
19189;SDS011;9727;50.200;19.038;2024-02-26T03:13:12;34.73;;;18.93;;
19189;SDS011;9727;50.200;19.038;2024-02-26T03:15:39;36.40;;;18.87;;
19189;SDS011;9727;50.200;19.038;2024-02-26T03:18:05;39.73;;;18.80;;
19189;SDS011;9727;50.200;19.038;2024-02-26T03:20:32;33.73;;;18.47;;
19189;SDS011;9727;50.200;19.038;2024-02-26T03:23:02;38.70;;;18.47;;
19189;SDS011;9727;50.200;19.038;2024-02-26T03:25:29;35.47;;;18.63;;
19189;SDS011;9727;50.200;19.038;2024-02-26T03:27:55;38.63;;;20.23;;
19189;SDS011;9727;50.200;19.038;2024-02-26T03:30:23;35.87;;;19.77;;
19189;SDS011;9727;50.200;19.038;2024-02-26T03:32:49;33.47;;;19.30;;
19189;SDS011;9727;50.200;19.038;2024-02-26T03:35:16;35.30;;;19.57;;
19189;SDS011;9727;50.200;19.038;2024-02-26T03:37:42;40.70;;;20.20;;
19189;SDS011;9727;50.200;19.038;2024-02-26T03:40:12;36.30;;;20.03;;
19189;SDS011;9727;50.200;19.038;2024-02-26T03:42:39;41.43;;;19.10;;
19189;SDS011;9727;50.200;19.038;2024-02-26T03:45:05;37.20;;;19.57;;
19189;SDS011;9727;50.200;19.038;2024-02-26T03:47:33;40.97;;;20.77;;
19189;SDS011;9727;50.200;19.038;2024-02-26T03:50:00;34.77;;;18.73;;
19189;SDS011;9727;50.200;19.038;2024-02-26T03:52:29;31.43;;;17.40;;
19189;SDS011;9727;50.200;19.038;2024-02-26T03:54:55;31.67;;;16.83;;
19189;SDS011;9727;50.200;19.038;2024-02-26T03:57:22;34.47;;;17.80;;
19189;SDS011;9727;50.200;19.038;2024-02-26T03:59:51;32.93;;;17.87;;
19189;SDS011;9727;50.200;19.038;2024-02-26T04:02:18;34.17;;;19.17;;
19189;SDS011;9727;50.200;19.038;2024-02-26T04:04:47;41.13;;;21.33;;
19189;SDS011;9727;50.200;19.038;2024-02-26T04:07:16;59.00;;;27.17;;
19189;SDS011;9727;50.200;19.038;2024-02-26T04:09:42;61.30;;;25.20;;
19189;SDS011;9727;50.200;19.038;2024-02-26T04:12:09;47.83;;;22.90;;
19189;SDS011;9727;50.200;19.038;2024-02-26T04:14:36;42.67;;;21.53;;
19189;SDS011;9727;50.200;19.038;2024-02-26T04:17:03;37.57;;;19.67;;
19189;SDS011;9727;50.200;19.038;2024-02-26T04:19:29;42.57;;;20.30;;
19189;SDS011;9727;50.200;19.038;2024-02-26T04:21:57;37.73;;;19.93;;
19189;SDS011;9727;50.200;19.038;2024-02-26T04:24:24;38.73;;;18.90;;
19189;SDS011;9727;50.200;19.038;2024-02-26T04:26:52;37.97;;;19.03;;
19189;SDS011;9727;50.200;19.038;2024-02-26T04:29:19;43.80;;;18.90;;
19189;SDS011;9727;50.200;19.038;2024-02-26T04:31:45;40.40;;;19.50;;
19189;SDS011;9727;50.200;19.038;2024-02-26T04:34:13;45.40;;;21.50;;
19189;SDS011;9727;50.200;19.038;2024-02-26T04:36:39;52.27;;;21.80;;
19189;SDS011;9727;50.200;19.038;2024-02-26T04:39:08;42.00;;;21.17;;
19189;SDS011;9727;50.200;19.038;2024-02-26T04:41:38;40.67;;;19.83;;
19189;SDS011;9727;50.200;19.038;2024-02-26T04:44:04;40.50;;;19.40;;
19189;SDS011;9727;50.200;19.038;2024-02-26T04:46:31;41.57;;;19.67;;
19189;SDS011;9727;50.200;19.038;2024-02-26T04:48:58;39.80;;;18.50;;
19189;SDS011;9727;50.200;19.038;2024-02-26T04:51:32;32.50;;;15.77;;
19189;SDS011;9727;50.200;19.038;2024-02-26T04:53:58;30.43;;;15.63;;
19189;SDS011;9727;50.200;19.038;2024-02-26T04:56:29;30.70;;;15.63;;
19189;SDS011;9727;50.200;19.038;2024-02-26T04:58:56;29.47;;;15.97;;
19189;SDS011;9727;50.200;19.038;2024-02-26T05:01:22;34.07;;;15.83;;
19189;SDS011;9727;50.200;19.038;2024-02-26T05:03:49;32.97;;;16.13;;
19189;SDS011;9727;50.200;19.038;2024-02-26T05:06:16;32.33;;;17.40;;
19189;SDS011;9727;50.200;19.038;2024-02-26T05:08:42;30.80;;;16.63;;
19189;SDS011;9727;50.200;19.038;2024-02-26T05:11:09;32.40;;;16.63;;
19189;SDS011;9727;50.200;19.038;2024-02-26T05:13:38;28.10;;;15.53;;
19189;SDS011;9727;50.200;19.038;2024-02-26T05:16:04;28.90;;;15.37;;
19189;SDS011;9727;50.200;19.038;2024-02-26T05:18:31;29.23;;;15.57;;
19189;SDS011;9727;50.200;19.038;2024-02-26T05:20:57;30.13;;;14.37;;
19189;SDS011;9727;50.200;19.038;2024-02-26T05:23:26;29.03;;;15.53;;
19189;SDS011;9727;50.200;19.038;2024-02-26T05:25:52;28.67;;;14.77;;
19189;SDS011;9727;50.200;19.038;2024-02-26T05:28:19;30.97;;;15.13;;
19189;SDS011;9727;50.200;19.038;2024-02-26T05:30:50;27.93;;;14.20;;
19189;SDS011;9727;50.200;19.038;2024-02-26T05:33:16;26.77;;;14.80;;
19189;SDS011;9727;50.200;19.038;2024-02-26T05:35:43;24.10;;;13.40;;
19189;SDS011;9727;50.200;19.038;2024-02-26T05:38:09;25.50;;;13.03;;
19189;SDS011;9727;50.200;19.038;2024-02-26T05:40:36;21.83;;;12.03;;
19189;SDS011;9727;50.200;19.038;2024-02-26T05:43:03;25.20;;;12.00;;
19189;SDS011;9727;50.200;19.038;2024-02-26T05:45:30;19.57;;;11.53;;
19189;SDS011;9727;50.200;19.038;2024-02-26T05:48:04;23.73;;;11.67;;
19189;SDS011;9727;50.200;19.038;2024-02-26T05:50:32;24.63;;;13.07;;
19189;SDS011;9727;50.200;19.038;2024-02-26T05:52:58;25.13;;;13.07;;
19189;SDS011;9727;50.200;19.038;2024-02-26T05:55:27;26.90;;;13.47;;
19189;SDS011;9727;50.200;19.038;2024-02-26T05:57:54;23.20;;;12.90;;
19189;SDS011;9727;50.200;19.038;2024-02-26T06:00:21;23.73;;;12.13;;
19189;SDS011;9727;50.200;19.038;2024-02-26T06:02:47;21.93;;;11.20;;
19189;SDS011;9727;50.200;19.038;2024-02-26T06:05:16;21.97;;;11.47;;
19189;SDS011;9727;50.200;19.038;2024-02-26T06:07:43;22.57;;;12.53;;
19189;SDS011;9727;50.200;19.038;2024-02-26T06:10:10;22.57;;;12.10;;
19189;SDS011;9727;50.200;19.038;2024-02-26T06:12:38;22.10;;;12.30;;
19189;SDS011;9727;50.200;19.038;2024-02-26T06:15:05;25.20;;;12.60;;
19189;SDS011;9727;50.200;19.038;2024-02-26T06:17:32;25.37;;;12.53;;
19189;SDS011;9727;50.200;19.038;2024-02-26T06:20:02;23.90;;;12.17;;
19189;SDS011;9727;50.200;19.038;2024-02-26T06:22:32;20.77;;;11.07;;
19189;SDS011;9727;50.200;19.038;2024-02-26T06:25:02;23.83;;;11.60;;
19189;SDS011;9727;50.200;19.038;2024-02-26T06:27:29;19.40;;;10.93;;
19189;SDS011;9727;50.200;19.038;2024-02-26T06:29:56;21.40;;;10.90;;
19189;SDS011;9727;50.200;19.038;2024-02-26T06:32:22;22.10;;;12.30;;
19189;SDS011;9727;50.200;19.038;2024-02-26T06:35:01;25.47;;;12.33;;
19189;SDS011;9727;50.200;19.038;2024-02-26T06:37:34;22.07;;;12.10;;
19189;SDS011;9727;50.200;19.038;2024-02-26T06:40:02;23.43;;;11.70;;
19189;SDS011;9727;50.200;19.038;2024-02-26T06:42:31;17.17;;;9.47;;
19189;SDS011;9727;50.200;19.038;2024-02-26T06:44:58;18.37;;;9.73;;
19189;SDS011;9727;50.200;19.038;2024-02-26T06:47:27;15.87;;;9.37;;
19189;SDS011;9727;50.200;19.038;2024-02-26T06:49:53;16.77;;;9.73;;
19189;SDS011;9727;50.200;19.038;2024-02-26T06:52:23;17.87;;;9.77;;
19189;SDS011;9727;50.200;19.038;2024-02-26T06:54:51;15.07;;;8.50;;
19189;SDS011;9727;50.200;19.038;2024-02-26T06:57:20;15.07;;;8.27;;
19189;SDS011;9727;50.200;19.038;2024-02-26T06:59:47;15.40;;;8.50;;
19189;SDS011;9727;50.200;19.038;2024-02-26T07:02:18;17.83;;;8.67;;
19189;SDS011;9727;50.200;19.038;2024-02-26T07:04:45;13.40;;;7.87;;
19189;SDS011;9727;50.200;19.038;2024-02-26T07:07:11;14.13;;;7.47;;
19189;SDS011;9727;50.200;19.038;2024-02-26T07:09:38;13.60;;;7.77;;
19189;SDS011;9727;50.200;19.038;2024-02-26T07:12:06;12.50;;;7.60;;
19189;SDS011;9727;50.200;19.038;2024-02-26T07:14:33;14.17;;;8.03;;
19189;SDS011;9727;50.200;19.038;2024-02-26T07:17:02;12.83;;;6.70;;
19189;SDS011;9727;50.200;19.038;2024-02-26T07:19:29;11.47;;;6.07;;
19189;SDS011;9727;50.200;19.038;2024-02-26T07:21:55;13.33;;;7.17;;
19189;SDS011;9727;50.200;19.038;2024-02-26T07:24:22;12.70;;;7.13;;
19189;SDS011;9727;50.200;19.038;2024-02-26T07:26:50;15.53;;;7.20;;
19189;SDS011;9727;50.200;19.038;2024-02-26T07:29:18;16.40;;;8.10;;
19189;SDS011;9727;50.200;19.038;2024-02-26T07:31:44;18.60;;;8.10;;
19189;SDS011;9727;50.200;19.038;2024-02-26T07:34:11;25.30;;;15.50;;
19189;SDS011;9727;50.200;19.038;2024-02-26T07:36:37;17.00;;;11.00;;
19189;SDS011;9727;50.200;19.038;2024-02-26T07:39:04;15.93;;;8.80;;
19189;SDS011;9727;50.200;19.038;2024-02-26T07:41:30;15.30;;;9.27;;
19189;SDS011;9727;50.200;19.038;2024-02-26T07:43:57;19.40;;;10.10;;
19189;SDS011;9727;50.200;19.038;2024-02-26T07:46:26;23.73;;;12.77;;
19189;SDS011;9727;50.200;19.038;2024-02-26T07:48:53;20.60;;;10.20;;
19189;SDS011;9727;50.200;19.038;2024-02-26T07:51:19;18.03;;;9.00;;
19189;SDS011;9727;50.200;19.038;2024-02-26T07:53:47;19.83;;;10.53;;
19189;SDS011;9727;50.200;19.038;2024-02-26T07:56:18;21.23;;;11.80;;
19189;SDS011;9727;50.200;19.038;2024-02-26T07:58:44;20.93;;;12.30;;
19189;SDS011;9727;50.200;19.038;2024-02-26T08:01:12;20.13;;;10.00;;
19189;SDS011;9727;50.200;19.038;2024-02-26T08:03:40;18.03;;;9.10;;
19189;SDS011;9727;50.200;19.038;2024-02-26T08:06:07;14.03;;;7.77;;
19189;SDS011;9727;50.200;19.038;2024-02-26T08:08:34;17.73;;;9.43;;
19189;SDS011;9727;50.200;19.038;2024-02-26T08:11:00;14.70;;;8.37;;
19189;SDS011;9727;50.200;19.038;2024-02-26T08:13:27;14.27;;;7.87;;
19189;SDS011;9727;50.200;19.038;2024-02-26T08:15:54;15.97;;;7.67;;
19189;SDS011;9727;50.200;19.038;2024-02-26T08:18:20;13.43;;;6.73;;
19189;SDS011;9727;50.200;19.038;2024-02-26T08:20:50;14.57;;;7.07;;
19189;SDS011;9727;50.200;19.038;2024-02-26T08:23:17;10.80;;;5.80;;
19189;SDS011;9727;50.200;19.038;2024-02-26T08:25:43;9.80;;;5.67;;
19189;SDS011;9727;50.200;19.038;2024-02-26T08:28:10;12.93;;;6.57;;
19189;SDS011;9727;50.200;19.038;2024-02-26T08:30:38;12.80;;;6.63;;
19189;SDS011;9727;50.200;19.038;2024-02-26T08:33:04;17.43;;;8.47;;
19189;SDS011;9727;50.200;19.038;2024-02-26T08:35:31;15.13;;;7.83;;
19189;SDS011;9727;50.200;19.038;2024-02-26T08:38:02;11.33;;;7.17;;
19189;SDS011;9727;50.200;19.038;2024-02-26T08:40:29;14.13;;;7.10;;
19189;SDS011;9727;50.200;19.038;2024-02-26T08:42:56;13.27;;;7.77;;
19189;SDS011;9727;50.200;19.038;2024-02-26T08:45:24;13.83;;;6.70;;
19189;SDS011;9727;50.200;19.038;2024-02-26T08:47:52;12.73;;;7.27;;
19189;SDS011;9727;50.200;19.038;2024-02-26T08:50:18;13.43;;;7.73;;
19189;SDS011;9727;50.200;19.038;2024-02-26T08:52:47;10.57;;;6.63;;
19189;SDS011;9727;50.200;19.038;2024-02-26T08:55:19;15.10;;;7.17;;
19189;SDS011;9727;50.200;19.038;2024-02-26T08:57:46;10.43;;;6.60;;
19189;SDS011;9727;50.200;19.038;2024-02-26T09:00:13;12.67;;;6.20;;
19189;SDS011;9727;50.200;19.038;2024-02-26T09:02:40;13.77;;;6.87;;
19189;SDS011;9727;50.200;19.038;2024-02-26T09:05:08;19.97;;;9.77;;
19189;SDS011;9727;50.200;19.038;2024-02-26T09:07:35;15.83;;;8.10;;
19189;SDS011;9727;50.200;19.038;2024-02-26T09:10:03;13.10;;;7.33;;
19189;SDS011;9727;50.200;19.038;2024-02-26T09:12:31;13.73;;;6.17;;
19189;SDS011;9727;50.200;19.038;2024-02-26T09:14:58;13.30;;;6.27;;
19189;SDS011;9727;50.200;19.038;2024-02-26T09:17:27;10.37;;;6.20;;
19189;SDS011;9727;50.200;19.038;2024-02-26T09:19:53;13.33;;;6.90;;
19189;SDS011;9727;50.200;19.038;2024-02-26T09:22:20;14.97;;;8.50;;
19189;SDS011;9727;50.200;19.038;2024-02-26T09:24:46;12.50;;;6.67;;
19189;SDS011;9727;50.200;19.038;2024-02-26T09:27:17;10.53;;;6.43;;
19189;SDS011;9727;50.200;19.038;2024-02-26T09:29:45;10.23;;;6.90;;
19189;SDS011;9727;50.200;19.038;2024-02-26T09:32:12;11.00;;;6.17;;
19189;SDS011;9727;50.200;19.038;2024-02-26T09:34:39;9.40;;;5.53;;
19189;SDS011;9727;50.200;19.038;2024-02-26T09:37:06;9.87;;;4.97;;
19189;SDS011;9727;50.200;19.038;2024-02-26T09:39:32;8.50;;;5.53;;
19189;SDS011;9727;50.200;19.038;2024-02-26T09:42:02;11.67;;;5.97;;
19189;SDS011;9727;50.200;19.038;2024-02-26T09:44:31;10.60;;;5.53;;
19189;SDS011;9727;50.200;19.038;2024-02-26T09:47:04;7.90;;;4.97;;
19189;SDS011;9727;50.200;19.038;2024-02-26T09:49:31;9.23;;;5.30;;
19189;SDS011;9727;50.200;19.038;2024-02-26T09:51:58;10.57;;;5.60;;
19189;SDS011;9727;50.200;19.038;2024-02-26T09:54:27;8.10;;;5.27;;
19189;SDS011;9727;50.200;19.038;2024-02-26T09:56:56;8.10;;;5.27;;
19189;SDS011;9727;50.200;19.038;2024-02-26T09:59:28;8.43;;;5.23;;
19189;SDS011;9727;50.200;19.038;2024-02-26T10:01:56;8.63;;;5.03;;
19189;SDS011;9727;50.200;19.038;2024-02-26T10:04:25;10.60;;;5.67;;
19189;SDS011;9727;50.200;19.038;2024-02-26T10:06:52;8.57;;;5.30;;
19189;SDS011;9727;50.200;19.038;2024-02-26T10:09:20;9.13;;;5.00;;
19189;SDS011;9727;50.200;19.038;2024-02-26T10:11:46;10.57;;;5.20;;
19189;SDS011;9727;50.200;19.038;2024-02-26T10:14:17;9.10;;;5.13;;
19189;SDS011;9727;50.200;19.038;2024-02-26T10:16:43;9.87;;;4.93;;
19189;SDS011;9727;50.200;19.038;2024-02-26T10:19:10;7.97;;;4.90;;
19189;SDS011;9727;50.200;19.038;2024-02-26T10:21:54;10.00;;;6.10;;
19189;SDS011;9727;50.200;19.038;2024-02-26T10:24:20;8.30;;;5.27;;
19189;SDS011;9727;50.200;19.038;2024-02-26T10:26:47;7.73;;;4.90;;
19189;SDS011;9727;50.200;19.038;2024-02-26T10:29:16;6.87;;;4.70;;
19189;SDS011;9727;50.200;19.038;2024-02-26T10:31:44;8.93;;;5.20;;
19189;SDS011;9727;50.200;19.038;2024-02-26T10:34:10;8.93;;;5.80;;
19189;SDS011;9727;50.200;19.038;2024-02-26T10:36:39;12.80;;;5.37;;
19189;SDS011;9727;50.200;19.038;2024-02-26T10:39:08;9.33;;;4.37;;
19189;SDS011;9727;50.200;19.038;2024-02-26T10:41:35;6.90;;;4.20;;
19189;SDS011;9727;50.200;19.038;2024-02-26T10:44:01;6.40;;;3.70;;
19189;SDS011;9727;50.200;19.038;2024-02-26T10:46:28;6.10;;;4.13;;
19189;SDS011;9727;50.200;19.038;2024-02-26T10:48:55;6.70;;;4.07;;
19189;SDS011;9727;50.200;19.038;2024-02-26T10:51:25;8.90;;;4.70;;
19189;SDS011;9727;50.200;19.038;2024-02-26T10:53:54;8.33;;;4.33;;
19189;SDS011;9727;50.200;19.038;2024-02-26T10:56:24;6.37;;;3.80;;
19189;SDS011;9727;50.200;19.038;2024-02-26T10:58:52;9.00;;;4.80;;
19189;SDS011;9727;50.200;19.038;2024-02-26T11:01:19;5.97;;;3.43;;
19189;SDS011;9727;50.200;19.038;2024-02-26T11:03:47;3.93;;;2.43;;
19189;SDS011;9727;50.200;19.038;2024-02-26T11:06:16;4.77;;;2.97;;
19189;SDS011;9727;50.200;19.038;2024-02-26T11:08:44;5.60;;;3.43;;
19189;SDS011;9727;50.200;19.038;2024-02-26T11:11:11;9.27;;;4.97;;
19189;SDS011;9727;50.200;19.038;2024-02-26T11:13:41;8.87;;;3.93;;
19189;SDS011;9727;50.200;19.038;2024-02-26T11:16:10;10.10;;;5.67;;
19189;SDS011;9727;50.200;19.038;2024-02-26T11:18:37;7.33;;;4.73;;
19189;SDS011;9727;50.200;19.038;2024-02-26T11:21:06;5.57;;;2.97;;
19189;SDS011;9727;50.200;19.038;2024-02-26T11:23:33;6.90;;;3.83;;
19189;SDS011;9727;50.200;19.038;2024-02-26T11:26:02;12.23;;;4.47;;
19189;SDS011;9727;50.200;19.038;2024-02-26T11:28:31;6.87;;;4.27;;
19189;SDS011;9727;50.200;19.038;2024-02-26T11:31:01;6.23;;;3.73;;
19189;SDS011;9727;50.200;19.038;2024-02-26T11:33:29;5.53;;;3.10;;
19189;SDS011;9727;50.200;19.038;2024-02-26T11:35:56;4.40;;;2.80;;
19189;SDS011;9727;50.200;19.038;2024-02-26T11:38:24;6.43;;;2.83;;
19189;SDS011;9727;50.200;19.038;2024-02-26T11:40:52;4.47;;;2.70;;
19189;SDS011;9727;50.200;19.038;2024-02-26T11:43:22;5.10;;;3.23;;
19189;SDS011;9727;50.200;19.038;2024-02-26T11:45:52;5.30;;;3.10;;
19189;SDS011;9727;50.200;19.038;2024-02-26T11:48:23;7.00;;;4.40;;
19189;SDS011;9727;50.200;19.038;2024-02-26T11:50:51;7.07;;;3.83;;
19189;SDS011;9727;50.200;19.038;2024-02-26T11:53:21;6.87;;;3.70;;
19189;SDS011;9727;50.200;19.038;2024-02-26T11:58:31;6.73;;;3.77;;
19189;SDS011;9727;50.200;19.038;2024-02-26T12:00:57;6.63;;;3.77;;
19189;SDS011;9727;50.200;19.038;2024-02-26T12:03:26;6.23;;;3.00;;
19189;SDS011;9727;50.200;19.038;2024-02-26T12:05:56;8.67;;;4.37;;
19189;SDS011;9727;50.200;19.038;2024-02-26T12:08:22;7.40;;;5.37;;
19189;SDS011;9727;50.200;19.038;2024-02-26T12:10:50;6.57;;;4.53;;
19189;SDS011;9727;50.200;19.038;2024-02-26T12:13:19;5.80;;;3.80;;
19189;SDS011;9727;50.200;19.038;2024-02-26T12:15:55;4.97;;;3.17;;
19189;SDS011;9727;50.200;19.038;2024-02-26T12:18:22;6.93;;;3.43;;
19189;SDS011;9727;50.200;19.038;2024-02-26T12:21:02;6.50;;;3.80;;
19189;SDS011;9727;50.200;19.038;2024-02-26T12:23:29;9.40;;;4.87;;
19189;SDS011;9727;50.200;19.038;2024-02-26T12:25:58;6.77;;;4.13;;
19189;SDS011;9727;50.200;19.038;2024-02-26T12:28:29;7.37;;;4.80;;
19189;SDS011;9727;50.200;19.038;2024-02-26T12:30:55;6.37;;;4.10;;
19189;SDS011;9727;50.200;19.038;2024-02-26T12:33:24;7.57;;;4.60;;
19189;SDS011;9727;50.200;19.038;2024-02-26T12:35:51;6.83;;;4.40;;
19189;SDS011;9727;50.200;19.038;2024-02-26T12:38:20;9.80;;;4.80;;
19189;SDS011;9727;50.200;19.038;2024-02-26T12:40:47;15.30;;;5.13;;
19189;SDS011;9727;50.200;19.038;2024-02-26T12:43:15;8.20;;;5.03;;
19189;SDS011;9727;50.200;19.038;2024-02-26T12:45:41;14.70;;;8.53;;
19189;SDS011;9727;50.200;19.038;2024-02-26T12:48:10;15.60;;;9.27;;
19189;SDS011;9727;50.200;19.038;2024-02-26T12:50:39;14.40;;;8.63;;
19189;SDS011;9727;50.200;19.038;2024-02-26T12:53:05;15.87;;;9.33;;
19189;SDS011;9727;50.200;19.038;2024-02-26T12:55:34;15.13;;;9.17;;
19189;SDS011;9727;50.200;19.038;2024-02-26T12:58:04;18.43;;;11.70;;
19189;SDS011;9727;50.200;19.038;2024-02-26T13:00:34;19.53;;;11.40;;
19189;SDS011;9727;50.200;19.038;2024-02-26T13:03:02;17.30;;;11.33;;
19189;SDS011;9727;50.200;19.038;2024-02-26T13:05:30;15.70;;;9.93;;
19189;SDS011;9727;50.200;19.038;2024-02-26T13:07:58;15.00;;;9.83;;
19189;SDS011;9727;50.200;19.038;2024-02-26T13:10:29;16.07;;;10.63;;
19189;SDS011;9727;50.200;19.038;2024-02-26T13:13:01;20.27;;;11.40;;
19189;SDS011;9727;50.200;19.038;2024-02-26T13:15:28;12.97;;;7.73;;
19189;SDS011;9727;50.200;19.038;2024-02-26T13:17:55;12.27;;;6.90;;
19189;SDS011;9727;50.200;19.038;2024-02-26T13:20:26;17.97;;;10.30;;
19189;SDS011;9727;50.200;19.038;2024-02-26T13:23:03;17.53;;;10.77;;
19189;SDS011;9727;50.200;19.038;2024-02-26T13:25:30;12.07;;;7.80;;
19189;SDS011;9727;50.200;19.038;2024-02-26T13:28:06;29.40;;;18.33;;
19189;SDS011;9727;50.200;19.038;2024-02-26T13:30:36;22.07;;;13.10;;
19189;SDS011;9727;50.200;19.038;2024-02-26T13:33:09;21.60;;;12.23;;
19189;SDS011;9727;50.200;19.038;2024-02-26T13:35:36;21.53;;;11.73;;
19189;SDS011;9727;50.200;19.038;2024-02-26T13:38:04;17.53;;;10.00;;
19189;SDS011;9727;50.200;19.038;2024-02-26T13:40:30;26.20;;;11.13;;
19189;SDS011;9727;50.200;19.038;2024-02-26T13:42:57;19.33;;;12.00;;
19189;SDS011;9727;50.200;19.038;2024-02-26T13:45:25;22.73;;;13.17;;
19189;SDS011;9727;50.200;19.038;2024-02-26T13:47:52;37.07;;;18.50;;
19189;SDS011;9727;50.200;19.038;2024-02-26T13:50:21;18.53;;;10.13;;
19189;SDS011;9727;50.200;19.038;2024-02-26T13:52:49;14.97;;;9.40;;
19189;SDS011;9727;50.200;19.038;2024-02-26T13:55:19;12.83;;;8.23;;
19189;SDS011;9727;50.200;19.038;2024-02-26T13:57:46;12.17;;;7.00;;
19189;SDS011;9727;50.200;19.038;2024-02-26T14:00:13;10.77;;;7.77;;
19189;SDS011;9727;50.200;19.038;2024-02-26T14:02:42;12.73;;;8.13;;
19189;SDS011;9727;50.200;19.038;2024-02-26T14:05:08;12.87;;;8.10;;
19189;SDS011;9727;50.200;19.038;2024-02-26T14:07:35;31.77;;;14.33;;
19189;SDS011;9727;50.200;19.038;2024-02-26T14:10:01;28.80;;;13.73;;
19189;SDS011;9727;50.200;19.038;2024-02-26T14:12:29;34.43;;;15.53;;
19189;SDS011;9727;50.200;19.038;2024-02-26T14:14:56;25.10;;;11.37;;
19189;SDS011;9727;50.200;19.038;2024-02-26T14:17:25;19.53;;;10.43;;
19189;SDS011;9727;50.200;19.038;2024-02-26T14:19:53;15.50;;;9.13;;
19189;SDS011;9727;50.200;19.038;2024-02-26T14:22:20;20.10;;;10.67;;
19189;SDS011;9727;50.200;19.038;2024-02-26T14:24:47;18.73;;;10.53;;
19189;SDS011;9727;50.200;19.038;2024-02-26T14:27:16;15.50;;;9.23;;
19189;SDS011;9727;50.200;19.038;2024-02-26T14:29:43;16.50;;;9.20;;
19189;SDS011;9727;50.200;19.038;2024-02-26T14:32:10;14.93;;;9.60;;
19189;SDS011;9727;50.200;19.038;2024-02-26T14:34:36;15.03;;;8.03;;
19189;SDS011;9727;50.200;19.038;2024-02-26T14:37:06;18.50;;;10.37;;